Time;durP1;ratioP1;P1;durP2;ratioP2;P2;SDS_P1;SDS_P2;PMS_P1;PMS_P2;Temp;Humidity;BMP_temperature;BMP_pressure;BME280_temperature;BME280_humidity;BME280_pressure;Samples;Min_cycle;Max_cycle;Signal;HPM_P1;HPM_P2
2022/06/30 00:01:49;;;;;;;2.63;0.63;;;;;;;14.51;100.00;99248.84;7397424;19;20022;-86
2022/06/30 00:04:15;;;;;;;0.60;0.43;;;;;;;14.56;100.00;99248.06;7394143;19;20018;-86
2022/06/30 00:06:41;;;;;;;1.70;0.63;;;;;;;14.59;100.00;99249.84;7397065;19;20021;-86
2022/06/30 00:09:07;;;;;;;4.93;0.93;;;;;;;14.58;100.00;99248.31;7397194;19;20026;-86
2022/06/30 00:11:33;;;;;;;1.48;0.73;;;;;;;14.59;100.00;99241.44;7397250;19;20069;-87
2022/06/30 00:14:00;;;;;;;2.17;0.98;;;;;;;14.65;100.00;99242.16;7394261;19;20094;-86
2022/06/30 00:16:26;;;;;;;0.68;0.40;;;;;;;14.61;100.00;99238.88;7396429;19;20021;-87
2022/06/30 00:18:52;;;;;;;3.28;0.80;;;;;;;14.61;100.00;99238.88;7395949;19;20014;-87
2022/06/30 00:21:18;;;;;;;5.70;1.17;;;;;;;14.61;100.00;99240.91;7396392;19;20026;-87
2022/06/30 00:23:44;;;;;;;1.77;0.55;;;;;;;14.61;100.00;99238.88;7396425;19;20029;-86
2022/06/30 00:26:10;;;;;;;1.05;0.52;;;;;;;14.55;100.00;99224.13;7396025;19;20102;-87
2022/06/30 00:28:37;;;;;;;1.23;0.73;;;;;;;14.51;100.00;99217.28;7394955;19;20344;-86
2022/06/30 00:31:03;;;;;;;3.42;1.15;;;;;;;14.44;100.00;99224.19;7396950;19;20019;-86
2022/06/30 00:33:29;;;;;;;0.30;0.30;;;;;;;14.36;100.00;99228.81;7394348;19;20026;-86
2022/06/30 00:35:55;;;;;;;1.73;0.50;;;;;;;14.26;100.00;99219.16;7394131;19;20011;-86
2022/06/30 00:38:22;;;;;;;0.98;0.75;;;;;;;14.19;100.00;99219.69;7396368;19;20002;-87
2022/06/30 00:40:48;;;;;;;3.85;0.85;;;;;;;14.11;100.00;99215.91;7396717;19;20428;-87
2022/06/30 00:43:15;;;;;;;1.13;0.60;;;;;;;14.00;100.00;99224.34;7395762;19;20022;-86
2022/06/30 00:45:42;;;;;;;1.70;1.05;;;;;;;13.91;100.00;99221.81;7394635;19;20031;-86
2022/06/30 00:48:09;;;;;;;3.45;0.60;;;;;;;13.85;100.00;99212.69;7394314;19;20475;-86
2022/06/30 00:50:36;;;;;;;1.88;0.60;;;;;;;13.81;100.00;99215.75;7395739;19;20018;-86
2022/06/30 00:53:06;;;;;;;2.13;0.65;;;;;;;13.73;100.00;99222.41;7394827;19;20520;-87
2022/06/30 00:55:33;;;;;;;0.77;0.45;;;;;;;13.66;100.00;99221.63;7395920;19;20007;-86
2022/06/30 00:58:03;;;;;;;1.08;0.73;;;;;;;13.58;100.00;99222.66;7393519;19;20356;-86
2022/06/30 01:00:32;;;;;;;0.95;0.52;;;;;;;13.50;100.00;99216.84;7396043;19;20018;-87
2022/06/30 01:02:59;;;;;;;3.25;0.45;;;;;;;13.48;100.00;99219.38;7394173;19;20365;-86
2022/06/30 01:05:27;;;;;;;0.77;0.35;;;;;;;13.48;100.00;99216.59;7394951;19;20366;-86
2022/06/30 01:07:54;;;;;;;0.85;0.65;;;;;;;13.49;100.00;99220.91;7394727;19;20025;-86
2022/06/30 01:13:05;;;;;;;0.60;0.60;;;;;;;13.50;100.00;99214.03;7393225;19;20025;-86
2022/06/30 01:15:32;;;;;;;1.55;0.80;;;;;;;13.54;100.00;99222.94;7392096;19;20030;-86
2022/06/30 01:17:58;;;;;;;3.47;0.82;;;;;;;13.55;100.00;99216.09;7393304;19;20011;-86
2022/06/30 01:20:30;;;;;;;0.63;0.63;;;;;;;13.60;100.00;99220.88;7399362;19;20351;-86
2022/06/30 01:22:57;;;;;;;1.00;0.60;;;;;;;13.63;100.00;99219.09;7395640;19;20044;-87
2022/06/30 01:25:24;;;;;;;2.30;0.35;;;;;;;13.65;100.00;99228.50;7394635;19;20013;-86
2022/06/30 01:27:54;;;;;;;1.60;0.68;;;;;;;13.70;100.00;99224.19;7395132;19;20011;-86
2022/06/30 01:30:22;;;;;;;1.92;0.85;;;;;;;13.75;100.00;99231.03;7399624;19;20046;-87
2022/06/30 01:32:49;;;;;;;0.57;0.32;;;;;;;13.73;100.00;99228.75;7393751;19;20046;-86
2022/06/30 01:35:15;;;;;;;1.15;0.60;;;;;;;13.68;100.00;99232.31;7394338;19;20015;-86
2022/06/30 01:37:51;;;;;;;2.63;1.20;;;;;;;13.61;100.00;99228.03;7394613;19;20021;-87
2022/06/30 01:40:19;;;;;;;0.70;0.40;;;;;;;13.58;100.00;99234.63;7397083;19;20015;-87
2022/06/30 01:42:45;;;;;;;1.17;0.30;;;;;;;13.53;100.00;99238.22;7392890;19;20022;-87
2022/06/30 01:45:12;;;;;;;1.15;0.55;;;;;;;13.42;100.00;99243.81;7393895;19;20524;-86
2022/06/30 01:47:39;;;;;;;2.20;1.00;;;;;;;13.40;100.00;99243.56;7392799;19;20078;-87
2022/06/30 01:50:09;;;;;;;2.08;0.65;;;;;;;13.36;100.00;99236.69;7395374;19;20029;-87
2022/06/30 01:52:35;;;;;;;1.08;0.32;;;;;;;13.37;100.00;99230.59;7392711;19;20018;-87
2022/06/30 01:55:01;;;;;;;0.82;0.60;;;;;;;13.35;100.00;99233.13;7392933;19;20025;-86
2022/06/30 01:57:27;;;;;;;0.90;0.60;;;;;;;13.33;100.00;99227.28;7392236;19;20022;-86
2022/06/30 01:59:53;;;;;;;0.50;0.20;;;;;;;13.28;100.00;99230.84;7396521;19;20019;-86
2022/06/30 02:02:20;;;;;;;7.00;0.43;;;;;;;13.28;100.00;99233.63;7392367;19;20373;-86
2022/06/30 02:04:46;;;;;;;1.00;0.63;;;;;;;13.27;100.00;99222.97;7392314;19;20563;-86
2022/06/30 02:07:14;;;;;;;0.82;0.57;;;;;;;13.21;100.00;99222.22;7392544;19;20118;-87
2022/06/30 02:09:41;;;;;;;0.75;0.75;;;;;;;13.20;100.00;99231.88;7395866;19;20097;-86
2022/06/30 02:14:53;;;;;;;0.28;0.28;;;;;;;13.16;100.00;99237.72;7392088;19;20028;-87
2022/06/30 02:17:19;;;;;;;0.73;0.73;;;;;;;13.19;100.00;99247.88;7391048;19;20103;-86
2022/06/30 02:19:46;;;;;;;0.80;0.73;;;;;;;13.16;100.00;99237.72;7394102;19;20023;-87
2022/06/30 02:22:12;;;;;;;3.40;0.77;;;;;;;13.15;100.00;99238.97;7391682;19;20010;-86
2022/06/30 02:24:38;;;;;;;1.67;0.40;;;;;;;13.19;100.00;99231.09;7392651;19;20019;-86
2022/06/30 02:27:04;;;;;;;1.73;0.57;;;;;;;13.19;100.00;99230.34;7396609;19;20497;-86
2022/06/30 02:29:30;;;;;;;1.52;0.75;;;;;;;13.24;100.00;99238.72;7403164;19;20469;-86
2022/06/30 02:31:57;;;;;;;10.02;0.68;;;;;;;13.28;100.00;99241.25;7398879;19;20010;-86
2022/06/30 02:34:23;;;;;;;3.65;0.70;;;;;;;13.32;100.00;99231.34;7399833;19;20022;-86
2022/06/30 02:36:49;;;;;;;1.98;0.50;;;;;;;13.31;100.00;99232.63;7399062;19;20026;-86
2022/06/30 02:39:15;;;;;;;3.22;0.60;;;;;;;13.32;100.00;99236.94;7401720;19;20015;-86
2022/06/30 02:41:41;;;;;;;0.75;0.43;;;;;;;13.32;100.00;99239.72;7399206;19;20066;-87
2022/06/30 02:44:07;;;;;;;0.30;0.30;;;;;;;13.30;100.00;99219.13;7399434;19;20026;-86
2022/06/30 02:46:33;;;;;;;0.20;0.20;;;;;;;13.35;100.00;99227.53;7399054;19;20014;-86
2022/06/30 02:49:00;;;;;;;1.65;0.52;;;;;;;13.37;100.00;99224.22;7398436;19;20019;-86
2022/06/30 02:51:26;;;;;;;1.27;0.65;;;;;;;13.41;100.00;99222.69;7399194;19;20018;-86
2022/06/30 02:53:52;;;;;;;0.47;0.47;;;;;;;13.44;100.00;99224.50;7395118;19;20018;-87
2022/06/30 02:56:18;;;;;;;0.40;0.40;;;;;;;13.50;100.00;99222.44;7398644;19;20360;-86
2022/06/30 02:58:44;;;;;;;2.22;0.38;;;;;;;13.49;100.00;99218.09;7397411;19;20335;-86
2022/06/30 03:01:10;;;;;;;0.20;0.15;;;;;;;13.46;100.00;99219.13;7398610;19;20030;-86
2022/06/30 03:03:37;;;;;;;2.65;1.00;;;;;;;13.44;100.00;99226.50;7398598;19;20122;-86
2022/06/30 03:06:03;;;;;;;1.52;0.30;;;;;;;13.43;100.00;99216.59;7396309;19;20015;-86
2022/06/30 03:08:29;;;;;;;8.52;0.68;;;;;;;13.43;100.00;99225.75;7396337;19;20332;-86
2022/06/30 03:10:55;;;;;;;1.17;0.75;;;;;;;13.42;100.00;99220.66;7397952;19;20026;-86
2022/06/30 03:13:21;;;;;;;0.73;0.38;;;;;;;13.41;100.00;99219.91;7396757;19;20019;-86
2022/06/30 03:15:49;;;;;;;0.90;0.43;;;;;;;13.42;100.00;99217.88;7397819;19;20050;-86
2022/06/30 03:18:15;;;;;;;4.68;1.00;;;;;;;13.47;100.00;99229.03;7396870;19;20018;-86
2022/06/30 03:20:42;;;;;;;0.85;0.68;;;;;;;13.54;100.00;99228.53;7397850;19;20027;-86
2022/06/30 03:23:08;;;;;;;0.77;0.28;;;;;;;13.57;100.00;99221.16;7396239;19;20017;-86
2022/06/30 03:25:34;;;;;;;1.55;0.60;;;;;;;13.57;100.00;99227.53;7395765;19;20030;-86
2022/06/30 03:28:02;;;;;;;6.40;1.05;;;;;;;13.58;100.00;99236.66;7395381;19;20047;-86
2022/06/30 03:30:28;;;;;;;0.73;0.50;;;;;;;13.59;100.00;99244.56;7396032;19;20022;-86
2022/06/30 03:32:54;;;;;;;3.13;0.60;;;;;;;13.60;100.00;99246.06;7396095;19;20018;-86
2022/06/30 03:35:20;;;;;;;1.33;0.45;;;;;;;13.65;100.00;99253.69;7397481;19;20487;-86
2022/06/30 03:37:47;;;;;;;2.17;0.85;;;;;;;13.65;100.00;99245.31;7396393;19;20027;-86
2022/06/30 03:40:13;;;;;;;1.17;0.40;;;;;;;13.64;100.00;99229.78;7401590;19;20023;-86
2022/06/30 03:42:39;;;;;;;1.48;0.52;;;;;;;13.61;100.00;99232.84;7395462;19;20022;-86
2022/06/30 03:45:06;;;;;;;2.40;0.75;;;;;;;13.54;100.00;99225.72;7396338;19;20029;-86
2022/06/30 03:47:32;;;;;;;2.70;0.85;;;;;;;13.53;100.00;99238.22;7394535;19;20357;-86
2022/06/30 03:49:58;;;;;;;0.40;0.20;;;;;;;13.54;100.00;99239.72;7399464;19;20089;-86
2022/06/30 03:52:24;;;;;;;3.03;1.15;;;;;;;13.54;100.00;99248.13;7394997;19;20039;-86
2022/06/30 03:54:50;;;;;;;1.67;0.80;;;;;;;13.53;100.00;99249.41;7395164;19;20356;-86
2022/06/30 03:57:16;;;;;;;1.52;0.80;;;;;;;13.50;100.00;99249.63;7396218;19;20021;-86
2022/06/30 03:59:43;;;;;;;2.80;0.77;;;;;;;13.48;100.00;99252.97;7399815;19;20426;-86
2022/06/30 04:02:09;;;;;;;1.67;0.47;;;;;;;13.46;100.00;99249.13;7395168;19;20010;-86
2022/06/30 04:04:35;;;;;;;6.95;0.40;;;;;;;13.48;100.00;99241.78;7396703;19;20021;-85
2022/06/30 04:07:02;;;;;;;2.10;0.70;;;;;;;13.51;100.00;99248.38;7395663;19;20015;-86
2022/06/30 04:09:28;;;;;;;1.33;0.47;;;;;;;13.57;100.00;99243.53;7397808;19;20023;-86
2022/06/30 04:11:54;;;;;;;1.35;0.32;;;;;;;13.58;100.00;99251.41;7394510;19;20380;-86
2022/06/30 04:14:20;;;;;;;1.48;0.55;;;;;;;13.59;100.00;99247.34;7395977;19;20022;-86
2022/06/30 04:16:47;;;;;;;0.55;0.25;;;;;;;13.61;100.00;99250.41;7393959;19;20020;-86
2022/06/30 04:19:13;;;;;;;0.70;0.50;;;;;;;13.62;100.00;99249.13;7396685;19;20022;-86
2022/06/30 04:21:39;;;;;;;3.40;0.80;;;;;;;13.60;100.00;99248.88;7396049;19;20023;-86
2022/06/30 04:24:05;;;;;;;0.45;0.40;;;;;;;13.55;100.00;99241.25;7394552;19;20460;-86
2022/06/30 04:26:32;;;;;;;4.22;0.80;;;;;;;13.49;100.00;99248.88;7395108;19;20487;-86
2022/06/30 04:28:58;;;;;;;1.35;0.52;;;;;;;13.40;100.00;99245.59;7393944;19;20025;-85
2022/06/30 04:34:09;;;;;;;0.77;0.77;;;;;;;13.31;100.00;99249.41;7392106;19;20098;-85
2022/06/30 04:36:35;;;;;;;2.83;1.10;;;;;;;13.28;100.00;99256.00;7395605;19;20496;-86
2022/06/30 04:39:01;;;;;;;1.30;0.30;;;;;;;13.29;100.00;99246.38;7395889;19;20010;-86
2022/06/30 04:41:27;;;;;;;1.38;0.60;;;;;;;13.27;100.00;99251.69;7393681;19;20024;-85
2022/06/30 04:43:58;;;;;;;0.88;0.47;;;;;;;13.34;100.00;99256.75;7393274;19;20041;-85
2022/06/30 04:46:25;;;;;;;2.08;0.68;;;;;;;13.37;100.00;99255.00;7393330;19;20014;-85
2022/06/30 04:48:53;;;;;;;0.85;0.32;;;;;;;13.43;100.00;99262.09;7393036;19;20010;-86
2022/06/30 04:51:19;;;;;;;1.33;0.70;;;;;;;13.48;100.00;99264.16;7392938;19;20384;-85
2022/06/30 04:53:46;;;;;;;0.75;0.40;;;;;;;13.56;100.00;99270.75;7392687;19;20034;-85
2022/06/30 04:56:13;;;;;;;0.68;0.47;;;;;;;13.63;100.00;99261.06;7392645;19;20370;-85
2022/06/30 04:58:39;;;;;;;1.70;0.57;;;;;;;13.71;100.00;99269.72;7394304;19;20011;-86
2022/06/30 05:01:06;;;;;;;1.55;0.35;;;;;;;13.78;100.00;99269.19;7393733;19;20089;-85
2022/06/30 05:03:33;;;;;;;15.02;1.42;;;;;;;13.84;100.00;99262.31;7394716;19;20018;-86
2022/06/30 05:05:59;;;;;;;4.47;1.00;;;;;;;13.97;100.00;99270.19;7394077;19;20026;-86
2022/06/30 05:08:26;;;;;;;0.68;0.30;;;;;;;14.05;100.00;99276.78;7394059;19;20007;-86
2022/06/30 05:10:52;;;;;;;0.73;0.50;;;;;;;14.15;100.00;99281.56;7394355;19;20022;-86
2022/06/30 05:13:18;;;;;;;1.92;0.30;;;;;;;14.32;100.00;99273.13;7392138;19;20014;-86
2022/06/30 05:15:45;;;;;;;0.70;0.40;;;;;;;14.42;100.00;99271.59;7392793;19;20026;-86
2022/06/30 05:18:12;;;;;;;2.72;1.25;;;;;;;14.51;100.00;99268.47;7392934;19;20020;-86
2022/06/30 05:20:39;;;;;;;1.13;0.52;;;;;;;14.56;100.00;99270.47;7392616;19;20015;-85
2022/06/30 05:23:05;;;;;;;0.50;0.45;;;;;;;14.61;100.00;99277.34;7394336;19;20023;-86
2022/06/30 05:28:17;;;;;;;1.88;0.40;;;;;;;14.69;100.00;99265.06;7393333;19;20398;-86
2022/06/30 05:30:44;;;;;;;6.60;0.82;;;;;;;14.82;100.00;99273.66;7391950;19;20015;-86
2022/06/30 05:33:10;;;;;;;5.47;1.40;;;;;;;14.90;100.00;99266.22;7391218;19;20014;-86
2022/06/30 05:35:36;;;;;;;1.55;1.00;;;;;;;14.95;100.00;99271.03;7392425;19;20014;-86
2022/06/30 05:38:02;;;;;;;2.83;1.15;;;;;;;15.04;100.00;99269.94;7394575;19;20093;-86
2022/06/30 05:40:29;;;;;;;1.17;0.68;;;;;;;15.11;100.00;99267.34;7393930;19;20082;-86
2022/06/30 05:42:55;;;;;;;3.72;0.88;;;;;;;15.09;100.00;99261.47;7391872;19;20018;-86
2022/06/30 05:45:21;;;;;;;0.77;0.38;;;;;;;15.09;100.00;99260.75;7391756;19;20018;-86
2022/06/30 05:47:53;;;;;;;2.58;0.95;;;;;;;15.11;100.00;99263.78;7390720;19;20011;-86
2022/06/30 05:50:21;;;;;;;4.65;1.08;;;;;;;15.25;100.00;99264.69;7395220;19;20018;-86
2022/06/30 05:52:50;;;;;;;1.17;0.47;;;;;;;15.35;100.00;99266.66;7392036;19;20024;-86
2022/06/30 05:55:17;;;;;;;4.90;0.82;;;;;;;15.45;100.00;99269.91;7391885;19;20055;-86
2022/06/30 05:57:56;;;;;;;3.42;0.75;;;;;;;15.58;100.00;99267.25;7392480;19;20011;-86
2022/06/30 06:00:27;;;;;;;5.93;0.77;;;;;;;15.68;100.00;99265.63;7396192;19;20101;-86
2022/06/30 06:02:54;;;;;;;1.55;0.95;;;;;;;15.76;100.00;99269.38;7398995;19;20036;-86
2022/06/30 06:05:21;;;;;;;1.38;0.45;;;;;;;15.79;100.00;99262.69;7400322;19;20011;-87
2022/06/30 06:07:48;;;;;;;0.28;0.10;;;;;;;15.77;100.00;99268.09;7400015;19;20464;-86
2022/06/30 06:10:15;;;;;;;0.47;0.47;;;;;;;15.82;100.00;99264.47;7404514;19;20010;-86
2022/06/30 06:12:43;;;;;;;0.82;0.35;;;;;;;15.90;100.00;99266.16;7398549;19;20029;-86
2022/06/30 06:15:13;;;;;;;0.52;0.47;;;;;;;15.91;100.00;99267.69;7400447;19;20090;-86
2022/06/30 06:17:44;;;;;;;1.57;0.77;;;;;;;16.00;100.00;99266.59;7399176;19;20014;-86
2022/06/30 06:20:12;;;;;;;0.75;0.52;;;;;;;16.15;100.00;99269.75;7404458;19;20279;-87
2022/06/30 06:22:39;;;;;;;0.40;0.28;;;;;;;16.37;100.00;99263.84;7399084;19;20018;-86
2022/06/30 06:25:05;;;;;;;4.32;0.32;;;;;;;16.41;100.00;99275.56;7399728;19;20024;-87
2022/06/30 06:27:32;;;;;;;0.80;0.45;;;;;;;16.30;100.00;99269.31;7397855;19;20010;-86
2022/06/30 06:29:58;;;;;;;6.40;0.65;;;;;;;16.12;100.00;99275.63;7401192;19;20047;-87
2022/06/30 06:32:24;;;;;;;1.15;0.35;;;;;;;15.94;100.00;99271.47;7398136;19;20089;-86
2022/06/30 06:34:50;;;;;;;0.30;0.30;;;;;;;15.83;100.00;99277.25;7400334;19;20018;-86
2022/06/30 06:37:17;;;;;;;2.40;0.22;;;;;;;15.82;100.00;99275.69;7398575;19;20022;-86
2022/06/30 06:39:43;;;;;;;0.13;0.10;;;;;;;15.84;100.00;99276.69;7400808;19;20491;-86
2022/06/30 06:42:09;;;;;;;0.35;0.17;;;;;;;15.83;100.00;99271.63;7399379;19;20034;-86
2022/06/30 06:44:39;;;;;;;0.17;0.10;;;;;;;15.80;100.00;99272.66;7397643;19;20014;-86
2022/06/30 06:47:06;;;;;;;0.77;0.30;;;;;;;15.70;100.00;99275.03;7399223;19;20020;-86
2022/06/30 06:49:32;;;;;;;0.73;0.30;;;;;;;15.63;100.00;99272.06;7402130;19;20026;-86
2022/06/30 06:51:59;;;;;;;0.10;0.03;;;;;;;15.54;100.00;99269.59;7397310;19;20479;-87
2022/06/30 06:54:25;;;;;;;0.90;0.20;;;;;;;15.53;100.00;99265.25;7398625;19;20014;-86
2022/06/30 06:56:51;;;;;;;0.43;0.17;;;;;;;15.52;100.00;99274.97;7396903;19;20562;-86
2022/06/30 06:59:17;;;;;;;2.47;1.13;;;;;;;15.49;100.00;99276.00;7398730;19;20018;-85
2022/06/30 07:01:43;;;;;;;0.17;0.17;;;;;;;15.39;100.00;99277.59;7399093;19;20027;-86
2022/06/30 07:04:09;;;;;;;0.85;0.10;;;;;;;15.30;100.00;99286.34;7397151;19;20015;-85
2022/06/30 07:06:36;;;;;;;3.40;0.20;;;;;;;15.20;100.00;99283.84;7397276;19;20014;-86
2022/06/30 07:09:02;;;;;;;1.27;0.35;;;;;;;15.26;100.00;99281.00;7396983;19;20051;-85
2022/06/30 07:11:28;;;;;;;6.45;0.17;;;;;;;15.53;100.00;99277.25;7398074;19;20524;-86
2022/06/30 07:13:55;;;;;;;0.15;0.10;;;;;;;15.85;100.00;99274.66;7391629;19;20110;-86
2022/06/30 07:16:21;;;;;;;1.00;0.45;;;;;;;16.08;100.00;99284.38;7398529;19;20355;-86
2022/06/30 07:18:47;;;;;;;1.27;0.20;;;;;;;16.12;100.00;99282.03;7397084;19;20353;-86
2022/06/30 07:21:14;;;;;;;0.20;0.20;;;;;;;16.18;100.00;99282.72;7396411;19;20021;-86
2022/06/30 07:23:42;;;;;;;0.38;0.22;;;;;;;16.34;100.00;99293.00;7397351;19;20035;-87
2022/06/30 07:26:11;;;;;;;0.95;0.30;;;;;;;16.49;100.00;99293.34;7397728;19;20086;-87
2022/06/30 07:28:37;;;;;;;1.65;0.30;;;;;;;16.47;100.00;99289.53;7396912;19;20015;-86
2022/06/30 07:31:04;;;;;;;2.55;0.35;;;;;;;16.33;100.00;99285.13;7396272;19;20011;-86
2022/06/30 07:33:30;;;;;;;0.15;0.15;;;;;;;16.11;100.00;99291.75;7397241;19;20014;-86
2022/06/30 07:35:58;;;;;;;2.67;0.20;;;;;;;15.86;100.00;99287.41;7397554;19;20025;-85
2022/06/30 07:38:24;;;;;;;1.48;0.55;;;;;;;15.61;100.00;99295.03;7394561;19;20007;-86
2022/06/30 07:40:50;;;;;;;0.20;0.15;;;;;;;15.39;100.00;99297.22;7397261;19;20045;-86
2022/06/30 07:43:16;;;;;;;0.68;0.30;;;;;;;15.24;100.00;99300.41;7396308;19;20018;-86
2022/06/30 07:45:42;;;;;;;1.17;0.60;;;;;;;15.31;100.00;99287.88;7397150;19;20010;-86
2022/06/30 07:48:08;;;;;;;1.35;0.43;;;;;;;15.50;100.00;99289.53;7393761;19;20022;-85
2022/06/30 07:50:35;;;;;;;2.53;0.40;;;;;;;15.72;100.00;99282.94;7396021;19;20042;-86
2022/06/30 07:53:01;;;;;;;0.52;0.32;;;;;;;15.92;100.00;99288.09;7395881;19;20021;-86
2022/06/30 07:55:27;;;;;;;4.72;0.82;;;;;;;15.84;100.00;99295.59;7397575;19;20098;-85
2022/06/30 07:57:53;;;;;;;0.55;0.20;;;;;;;15.68;100.00;99288.09;7394227;19;20015;-85
2022/06/30 08:00:24;;;;;;;1.17;0.43;;;;;;;15.55;100.00;99290.75;7401014;19;20342;-85
2022/06/30 08:02:51;;;;;;;3.10;0.50;;;;;;;15.53;100.00;99293.31;7395108;19;20007;-86
2022/06/30 08:05:17;;;;;;;0.50;0.30;;;;;;;15.76;100.00;99294.66;7395237;19;20023;-86
2022/06/30 08:07:44;;;;;;;1.27;0.32;;;;;;;16.12;100.00;99289.69;7396202;19;20007;-86
2022/06/30 08:10:11;;;;;;;0.20;0.10;;;;;;;16.39;100.00;99286.56;7400119;19;20019;-84
2022/06/30 08:12:37;;;;;;;1.13;0.47;;;;;;;16.51;100.00;99279.53;7393865;19;20489;-85
2022/06/30 08:15:04;;;;;;;5.97;0.32;;;;;;;16.70;100.00;99278.81;7396388;19;20010;-84
2022/06/30 08:17:31;;;;;;;0.80;0.20;;;;;;;16.83;100.00;99281.69;7395269;19;20014;-85
2022/06/30 08:19:59;;;;;;;0.70;0.70;;;;;;;17.20;100.00;99288.03;7399269;19;20088;-85
2022/06/30 08:22:25;;;;;;;0.57;0.10;;;;;;;17.57;100.00;99292.84;7393734;19;20015;-85
2022/06/30 08:24:52;;;;;;;0.80;0.30;;;;;;;17.53;100.00;99292.41;7392968;19;20021;-84
2022/06/30 08:27:18;;;;;;;0.17;0.13;;;;;;;17.53;100.00;99291.63;7394705;19;20029;-85
2022/06/30 08:29:44;;;;;;;1.27;0.30;;;;;;;17.89;100.00;99287.94;7397891;19;20089;-85
2022/06/30 08:32:10;;;;;;;0.40;0.10;;;;;;;18.31;100.00;99286.13;7393787;19;20424;-85
2022/06/30 08:34:36;;;;;;;0.25;0.10;;;;;;;18.97;100.00;99288.88;7395474;19;20025;-85
2022/06/30 08:37:03;;;;;;;3.22;0.20;;;;;;;19.62;100.00;99291.44;7394307;19;20022;-85
2022/06/30 08:42:18;;;;;;;1.08;0.52;;;;;;;19.81;100.00;99291.22;7395006;19;20018;-84
2022/06/30 08:45:13;;;;;;;2.50;0.22;;;;;;;19.42;100.00;99290.13;7393275;19;20519;-84
2022/06/30 08:47:32;;;;;;;2.75;0.10;;;;;;;19.01;100.00;99300.56;7394482;19;20098;-84
2022/06/30 08:49:58;;;;;;;0.22;0.10;;;;;;;18.71;100.00;99300.97;7396702;19;20300;-83
2022/06/30 08:52:26;;;;;;;1.83;0.32;;;;;;;18.34;100.00;99295.56;7392267;19;20041;-84
2022/06/30 08:54:53;;;;;;;4.38;0.68;;;;;;;18.30;100.00;99295.13;7394644;19;20028;-83
2022/06/30 08:57:19;;;;;;;0.28;0.10;;;;;;;18.22;100.00;99294.22;7394076;19;20035;-84
2022/06/30 08:59:46;;;;;;;0.20;0.20;;;;;;;18.71;100.00;99295.34;7397177;19;20002;-83
2022/06/30 09:02:12;;;;;;;0.63;0.32;;;;;;;19.24;100.00;99296.69;7393584;19;20018;-85
2022/06/30 09:04:39;;;;;;;0.85;0.22;;;;;;;19.32;100.00;99289.03;7392738;19;20020;-85
2022/06/30 09:07:05;;;;;;;0.20;0.10;;;;;;;19.10;100.00;99297.28;7392728;19;20026;-84
2022/06/30 09:09:31;;;;;;;0.20;0.20;;;;;;;18.86;100.00;99295.50;7396590;19;20022;-84
2022/06/30 09:11:57;;;;;;;1.75;0.25;;;;;;;18.54;100.00;99300.53;7393539;19;20520;-83
2022/06/30 09:14:50;;;;;;;1.55;0.40;;;;;;;18.18;100.00;99294.56;7391659;19;20018;-83
2022/06/30 09:17:25;;;;;;;0.75;0.40;;;;;;;17.96;100.00;99300.63;7392384;19;20025;-84
2022/06/30 09:19:59;;;;;;;0.10;0.00;;;;;;;17.83;100.00;99309.81;7396876;19;20015;-84
2022/06/30 09:22:28;;;;;;;4.28;0.40;;;;;;;17.87;100.00;99307.44;7392945;19;20014;-84
2022/06/30 09:25:04;;;;;;;0.50;0.15;;;;;;;17.95;100.00;99307.56;7392616;19;20063;-84
2022/06/30 09:27:35;;;;;;;0.40;0.40;;;;;;;18.50;100.00;99302.94;7391019;19;20046;-85
2022/06/30 09:30:07;;;;;;;0.10;0.10;;;;;;;18.81;100.00;99299.22;7395640;19;20045;-84
2022/06/30 09:32:57;;;;;;;2.47;0.30;;;;;;;19.24;100.00;99312.88;7392237;19;20387;-83
2022/06/30 09:35:26;;;;;;;2.65;0.10;;;;;;;19.67;100.00;99299.78;7389582;19;20045;-84
2022/06/30 09:38:01;;;;;;;0.38;0.03;;;;;;;20.09;100.00;99296.91;7392459;19;20081;-83
2022/06/30 09:40:31;;;;;;;0.17;0.10;;;;;;;20.05;100.00;99304.97;7397778;19;20095;-84
2022/06/30 09:42:58;;;;;;;1.17;0.30;;;;;;;19.66;100.00;99303.88;7391089;19;20022;-83
2022/06/30 09:45:41;;;;;;;0.60;0.22;;;;;;;19.37;100.00;99310.78;7391544;19;20086;-84
2022/06/30 09:48:10;;;;;;;1.20;0.28;;;;;;;19.22;100.00;99310.59;7390658;19;20338;-83
2022/06/30 09:50:37;;;;;;;0.15;0.03;;;;;;;19.54;100.00;99313.97;7392818;19;20437;-85
2022/06/30 09:53:11;;;;;;;0.68;0.00;;;;;;;19.63;100.00;99330.44;7391532;19;20039;-84
2022/06/30 09:55:48;;;;;;;3.10;0.10;;;;;;;19.67;100.00;99324.44;7392492;19;20023;-84
2022/06/30 09:58:34;;;;;;;0.10;0.00;;;;;;;19.84;100.00;99332.50;7390127;19;20444;-83
2022/06/30 10:01:01;;;;;;;1.40;0.55;;;;;;;19.88;100.00;99330.09;7391075;19;20010;-84
2022/06/30 10:03:27;;;;;;;0.08;0.00;;;;;;;19.98;100.00;99331.09;7392785;19;20025;-83
2022/06/30 10:06:11;;;;;;;0.43;0.10;;;;;;;19.97;100.00;99329.56;7390840;19;20074;-83
2022/06/30 10:08:38;;;;;;;0.50;0.20;;;;;;;19.93;100.00;99332.00;7390737;19;20015;-84
2022/06/30 10:11:06;;;;;;;0.10;0.10;;;;;;;20.01;100.00;99327.19;7392058;19;20026;-83
2022/06/30 10:13:39;;;;;;;0.98;0.20;;;;;;;19.99;100.00;99324.16;7390440;19;20014;-84
2022/06/30 10:16:07;;;;;;;0.55;0.20;;;;;;;19.95;100.00;99318.06;7393046;19;20022;-84
2022/06/30 10:18:37;;;;;;;0.10;0.00;;;;;;;20.06;100.00;99314.97;7391929;19;20007;-83
2022/06/30 10:21:04;;;;;;;0.25;0.00;;;;;;;20.26;100.00;99312.13;7390280;19;20015;-83
2022/06/30 10:23:32;;;;;;;0.10;0.10;;;;;;;20.31;100.00;99316.13;7391501;19;20023;-84
2022/06/30 10:25:58;;;;;;;1.77;0.10;;;;;;;19.95;100.00;99312.41;7389989;19;20022;-84
2022/06/30 10:28:27;;;;;;;0.95;0.25;;;;;;;20.00;100.00;99325.66;7389849;19;20015;-83
2022/06/30 10:31:16;;;;;;;0.10;0.00;;;;;;;20.19;100.00;99309.97;7390167;19;20034;-83
2022/06/30 10:34:10;;;;;;;3.30;0.10;;;;;;;20.43;100.00;99314.47;7389648;19;20026;-85
2022/06/30 10:36:36;;;;;;;0.17;0.17;;;;;;;20.54;100.00;99305.69;7390798;19;20345;-83
2022/06/30 10:39:18;;;;;;;1.65;0.17;;;;;;;20.28;100.00;99305.91;7391994;19;20069;-84
2022/06/30 10:41:46;;;;;;;2.33;0.52;;;;;;;20.10;100.00;99301.22;7389762;19;20074;-84
2022/06/30 10:44:21;;;;;;;0.00;0.00;;;;;;;20.16;100.00;99304.69;7391671;19;20010;-84
2022/06/30 10:46:47;;;;;;;0.95;0.10;;;;;;;20.19;100.00;99309.97;7390876;19;20411;-84
2022/06/30 10:49:14;;;;;;;1.52;0.43;;;;;;;20.86;100.00;99308.84;7396423;19;20018;-85
2022/06/30 10:51:40;;;;;;;6.00;0.40;;;;;;;20.79;100.00;99309.56;7397815;19;20431;-85
2022/06/30 10:54:08;;;;;;;0.65;0.10;;;;;;;20.76;100.00;99305.03;7396686;19;20025;-85
2022/06/30 10:56:49;;;;;;;0.10;0.10;;;;;;;20.71;100.00;99302.38;7396271;19;20014;-84
2022/06/30 10:59:25;;;;;;;0.20;0.00;;;;;;;20.78;100.00;99308.06;7396209;19;20499;-84
2022/06/30 11:02:14;;;;;;;0.52;0.00;;;;;;;21.43;100.00;99298.09;7396609;19;20023;-84
2022/06/30 11:04:42;;;;;;;3.10;0.00;;;;;;;22.01;100.00;99288.69;7396750;19;20026;-85
2022/06/30 11:07:18;;;;;;;0.10;0.10;;;;;;;22.30;100.00;99287.16;7397984;19;20094;-85
2022/06/30 11:09:45;;;;;;;0.77;0.30;;;;;;;22.49;100.00;99298.84;7401257;19;20019;-85
2022/06/30 11:12:12;;;;;;;1.55;0.32;;;;;;;22.18;100.00;99308.72;7398909;19;20018;-84
2022/06/30 11:14:45;;;;;;;0.55;0.00;;;;;;;22.07;100.00;99300.59;7396432;19;20112;-85
2022/06/30 11:17:16;;;;;;;0.20;0.00;;;;;;;21.83;100.00;99307.59;7396242;19;20029;-84
2022/06/30 11:19:43;;;;;;;0.00;0.00;;;;;;;21.54;100.00;99297.75;7399383;19;20022;-85
2022/06/30 11:22:14;;;;;;;0.50;0.10;;;;;;;21.20;100.00;99314.31;7396318;19;20037;-84
2022/06/30 11:24:42;;;;;;;0.10;0.10;;;;;;;20.91;100.00;99304.34;7396778;19;20029;-85
2022/06/30 11:27:24;;;;;;;3.28;0.50;;;;;;;20.65;100.00;99304.59;7396301;19;20688;-85
2022/06/30 11:30:04;;;;;;;0.65;0.10;;;;;;;20.33;100.00;99302.19;7400254;19;20022;-85
2022/06/30 11:32:31;;;;;;;1.27;0.00;;;;;;;20.08;100.00;99298.97;7396610;19;20018;-85
2022/06/30 11:34:58;;;;;;;0.35;0.10;;;;;;;19.89;100.00;99294.84;7396116;19;20341;-85
2022/06/30 11:37:30;;;;;;;4.95;0.10;;;;;;;19.65;100.00;99301.63;7397881;19;20022;-85
2022/06/30 11:39:57;;;;;;;1.33;0.52;;;;;;;19.53;100.00;99292.66;7399098;19;20094;-85
2022/06/30 11:42:24;;;;;;;0.30;0.00;;;;;;;19.46;100.00;99299.03;7395589;19;20010;-83